sensor_id;sensor_type;location;lat;lon;timestamp;pressure;altitude;pressure_sealevel;temperature;humidity
61906;BME280;47863;55.766;37.672;2024-02-23T00:02:03;100119.38;;;-2.67;93.05
61906;BME280;47863;55.766;37.672;2024-02-23T00:04:29;100150.59;;;-2.42;93.41
61906;BME280;47863;55.766;37.672;2024-02-23T00:06:55;100147.44;;;-2.49;93.42
61906;BME280;47863;55.766;37.672;2024-02-23T00:09:20;100108.34;;;-2.74;93.80
61906;BME280;47863;55.766;37.672;2024-02-23T00:11:46;100134.44;;;-2.52;93.67
61906;BME280;47863;55.766;37.672;2024-02-23T00:14:13;100137.97;;;-2.53;93.56
61906;BME280;47863;55.766;37.672;2024-02-23T00:16:41;100103.81;;;-2.70;93.68
61906;BME280;47863;55.766;37.672;2024-02-23T00:19:08;100143.88;;;-2.48;93.55
61906;BME280;47863;55.766;37.672;2024-02-23T00:21:37;100093.50;;;-2.75;93.66
61906;BME280;47863;55.766;37.672;2024-02-23T00:24:04;100162.94;;;-2.44;93.68
61906;BME280;47863;55.766;37.672;2024-02-23T00:26:30;100141.19;;;-2.46;93.42
61906;BME280;47863;55.766;37.672;2024-02-23T00:28:56;100137.06;;;-2.52;93.72
61906;BME280;47863;55.766;37.672;2024-02-23T00:31:21;100143.59;;;-2.42;93.96
61906;BME280;47863;55.766;37.672;2024-02-23T00:33:47;100148.28;;;-2.48;94.11
61906;BME280;47863;55.766;37.672;2024-02-23T00:36:13;100150.59;;;-2.42;94.22
61906;BME280;47863;55.766;37.672;2024-02-23T00:38:39;100149.88;;;-2.46;94.06
61906;BME280;47863;55.766;37.672;2024-02-23T00:41:05;100141.91;;;-2.43;94.25
61906;BME280;47863;55.766;37.672;2024-02-23T00:43:41;100137.06;;;-2.52;93.88
61906;BME280;47863;55.766;37.672;2024-02-23T00:46:08;100118.31;;;-2.63;94.31
61906;BME280;47863;55.766;37.672;2024-02-23T00:48:34;100147.97;;;-2.42;94.01
61906;BME280;47863;55.766;37.672;2024-02-23T00:51:01;100120.03;;;-2.62;94.23
61906;BME280;47863;55.766;37.672;2024-02-23T00:53:28;100149.94;;;-2.47;94.22
61906;BME280;47863;55.766;37.672;2024-02-23T00:55:54;100157.03;;;-2.49;94.33
61906;BME280;47863;55.766;37.672;2024-02-23T00:58:19;100167.34;;;-2.45;94.49
61906;BME280;47863;55.766;37.672;2024-02-23T01:00:45;100158.03;;;-2.52;94.70
61906;BME280;47863;55.766;37.672;2024-02-23T01:03:11;100117.25;;;-2.78;94.26
61906;BME280;47863;55.766;37.672;2024-02-23T01:05:36;100098.53;;;-2.89;94.33
61906;BME280;47863;55.766;37.672;2024-02-23T01:08:04;100139.97;;;-2.58;94.32
61906;BME280;47863;55.766;37.672;2024-02-23T01:10:29;100114.41;;;-2.73;94.25
61906;BME280;47863;55.766;37.672;2024-02-23T01:12:55;100122.94;;;-2.68;94.52
61906;BME280;47863;55.766;37.672;2024-02-23T01:15:21;100159.19;;;-2.38;94.34
61906;BME280;47863;55.766;37.672;2024-02-23T01:17:46;100134.50;;;-2.53;94.38
61906;BME280;47863;55.766;37.672;2024-02-23T01:20:13;100102.94;;;-2.71;94.62
61906;BME280;47863;55.766;37.672;2024-02-23T01:22:38;100128.34;;;-2.52;94.39
61906;BME280;47863;55.766;37.672;2024-02-23T01:25:05;100163.31;;;-2.33;94.12
61906;BME280;47863;55.766;37.672;2024-02-23T01:27:30;100152.22;;;-2.40;94.03
61906;BME280;47863;55.766;37.672;2024-02-23T01:29:56;100138.97;;;-2.55;94.16
61906;BME280;47863;55.766;37.672;2024-02-23T01:32:22;100143.16;;;-2.51;94.14
61906;BME280;47863;55.766;37.672;2024-02-23T01:34:48;100168.63;;;-2.34;94.21
61906;BME280;47863;55.766;37.672;2024-02-23T01:37:13;100162.44;;;-2.33;94.10
61906;BME280;47863;55.766;37.672;2024-02-23T01:39:39;100162.53;;;-2.35;93.93
61906;BME280;47863;55.766;37.672;2024-02-23T01:42:04;100057.59;;;-2.92;93.83
61906;BME280;47863;55.766;37.672;2024-02-23T01:44:30;100163.56;;;-2.39;93.75
61906;BME280;47863;55.766;37.672;2024-02-23T01:46:56;100164.78;;;-2.27;93.80
61906;BME280;47863;55.766;37.672;2024-02-23T01:49:22;100152.72;;;-2.31;93.99
61906;BME280;47863;55.766;37.672;2024-02-23T01:51:48;100158.75;;;-2.29;93.62
61906;BME280;47863;55.766;37.672;2024-02-23T01:54:15;100158.84;;;-2.31;93.50
61906;BME280;47863;55.766;37.672;2024-02-23T01:56:41;100102.66;;;-2.65;93.35
61906;BME280;47863;55.766;37.672;2024-02-23T01:59:09;100139.06;;;-2.38;93.61
61906;BME280;47863;55.766;37.672;2024-02-23T02:01:36;100155.16;;;-2.27;93.67
61906;BME280;47863;55.766;37.672;2024-02-23T02:04:02;100156.13;;;-2.29;93.54
61906;BME280;47863;55.766;37.672;2024-02-23T02:06:27;100160.41;;;-2.27;93.42
61906;BME280;47863;55.766;37.672;2024-02-23T02:08:53;100157.84;;;-2.28;93.40
61906;BME280;47863;55.766;37.672;2024-02-23T02:11:19;100144.00;;;-2.32;93.35
61906;BME280;47863;55.766;37.672;2024-02-23T02:13:45;100161.81;;;-2.20;93.66
61906;BME280;47863;55.766;37.672;2024-02-23T02:16:11;100144.66;;;-2.27;93.40
61906;BME280;47863;55.766;37.672;2024-02-23T02:18:37;100118.34;;;-2.44;93.29
61906;BME280;47863;55.766;37.672;2024-02-23T02:21:03;100107.50;;;-2.55;93.51
61906;BME280;47863;55.766;37.672;2024-02-23T02:23:28;100148.06;;;-2.25;93.18
61906;BME280;47863;55.766;37.672;2024-02-23T02:25:58;100161.63;;;-2.15;93.33
61906;BME280;47863;55.766;37.672;2024-02-23T02:28:25;100171.25;;;-2.15;93.63
61906;BME280;47863;55.766;37.672;2024-02-23T02:30:51;100168.63;;;-2.15;92.89
61906;BME280;47863;55.766;37.672;2024-02-23T02:33:18;100159.13;;;-2.18;92.98
61906;BME280;47863;55.766;37.672;2024-02-23T02:35:44;100142.81;;;-2.25;92.83
61906;BME280;47863;55.766;37.672;2024-02-23T02:38:13;100108.84;;;-2.47;93.08
61906;BME280;47863;55.766;37.672;2024-02-23T02:40:39;100163.53;;;-2.18;93.12
61906;BME280;47863;55.766;37.672;2024-02-23T02:43:05;100151.53;;;-2.24;93.07
61906;BME280;47863;55.766;37.672;2024-02-23T02:45:31;100162.53;;;-2.16;93.36
61906;BME280;47863;55.766;37.672;2024-02-23T02:47:56;100091.69;;;-2.54;92.97
61906;BME280;47863;55.766;37.672;2024-02-23T02:50:22;100156.56;;;-2.20;92.72
61906;BME280;47863;55.766;37.672;2024-02-23T02:52:48;100129.41;;;-2.37;92.95
61906;BME280;47863;55.766;37.672;2024-02-23T02:55:14;100147.47;;;-2.31;93.03
61906;BME280;47863;55.766;37.672;2024-02-23T02:57:40;100122.31;;;-2.35;93.00
61906;BME280;47863;55.766;37.672;2024-02-23T03:00:09;100131.13;;;-2.36;93.07
61906;BME280;47863;55.766;37.672;2024-02-23T03:02:35;100164.59;;;-2.23;93.21
61906;BME280;47863;55.766;37.672;2024-02-23T03:05:01;100116.78;;;-2.48;93.19
61906;BME280;47863;55.766;37.672;2024-02-23T03:07:26;100142.16;;;-2.30;93.15
61906;BME280;47863;55.766;37.672;2024-02-23T03:09:52;100159.97;;;-2.17;93.46
61906;BME280;47863;55.766;37.672;2024-02-23T03:12:18;100162.53;;;-2.16;93.11
61906;BME280;47863;55.766;37.672;2024-02-23T03:14:44;100147.19;;;-2.25;93.25
61906;BME280;47863;55.766;37.672;2024-02-23T03:17:10;100166.72;;;-2.12;93.14
61906;BME280;47863;55.766;37.672;2024-02-23T03:19:36;100155.72;;;-2.20;93.12
61906;BME280;47863;55.766;37.672;2024-02-23T03:22:02;100106.50;;;-2.53;93.31
61906;BME280;47863;55.766;37.672;2024-02-23T03:24:28;100170.19;;;-2.11;93.00
61906;BME280;47863;55.766;37.672;2024-02-23T03:26:54;100098.06;;;-2.60;93.06
61906;BME280;47863;55.766;37.672;2024-02-23T03:29:20;100096.63;;;-2.67;93.16
61906;BME280;47863;55.766;37.672;2024-02-23T03:31:50;100174.66;;;-2.13;93.33
61906;BME280;47863;55.766;37.672;2024-02-23T03:34:16;100134.88;;;-2.42;92.96
61906;BME280;47863;55.766;37.672;2024-02-23T03:36:41;100143.16;;;-2.51;93.22
61906;BME280;47863;55.766;37.672;2024-02-23T03:39:07;100183.47;;;-2.14;93.37
61906;BME280;47863;55.766;37.672;2024-02-23T03:41:32;100127.63;;;-2.56;93.28
61906;BME280;47863;55.766;37.672;2024-02-23T03:43:58;100158.19;;;-2.36;93.28
61906;BME280;47863;55.766;37.672;2024-02-23T03:46:24;100169.25;;;-2.29;93.45
61906;BME280;47863;55.766;37.672;2024-02-23T03:48:50;100180.84;;;-2.14;93.18
61906;BME280;47863;55.766;37.672;2024-02-23T03:51:15;100189.41;;;-2.11;93.41
61906;BME280;47863;55.766;37.672;2024-02-23T03:53:41;100118.19;;;-2.60;93.51
61906;BME280;47863;55.766;37.672;2024-02-23T03:56:07;100161.72;;;-2.37;93.54
61906;BME280;47863;55.766;37.672;2024-02-23T03:58:33;100153.16;;;-2.41;93.42
61906;BME280;47863;55.766;37.672;2024-02-23T04:00:59;100185.31;;;-2.16;93.32
61906;BME280;47863;55.766;37.672;2024-02-23T04:03:25;100156.63;;;-2.40;93.68
61906;BME280;47863;55.766;37.672;2024-02-23T04:05:50;100181.41;;;-2.27;93.48
61906;BME280;47863;55.766;37.672;2024-02-23T04:08:16;100193.03;;;-2.13;93.40
61906;BME280;47863;55.766;37.672;2024-02-23T04:10:42;100177.50;;;-2.18;93.40
61906;BME280;47863;55.766;37.672;2024-02-23T04:13:07;100130.81;;;-2.49;93.40
61906;BME280;47863;55.766;37.672;2024-02-23T04:15:33;100193.03;;;-2.13;93.28
61906;BME280;47863;55.766;37.672;2024-02-23T04:17:59;100162.16;;;-2.46;93.57
61906;BME280;47863;55.766;37.672;2024-02-23T04:20:25;100200.09;;;-2.15;93.60
61906;BME280;47863;55.766;37.672;2024-02-23T04:22:50;100214.88;;;-2.13;93.86
61906;BME280;47863;55.766;37.672;2024-02-23T04:25:16;100207.78;;;-2.11;93.58
61906;BME280;47863;55.766;37.672;2024-02-23T04:27:42;100214.00;;;-2.13;93.55
61906;BME280;47863;55.766;37.672;2024-02-23T04:30:10;100211.38;;;-2.13;93.69
61906;BME280;47863;55.766;37.672;2024-02-23T04:32:36;100160.25;;;-2.43;93.56
61906;BME280;47863;55.766;37.672;2024-02-23T04:35:02;100185.78;;;-2.27;93.93
61906;BME280;47863;55.766;37.672;2024-02-23T04:37:29;100214.66;;;-2.08;93.86
61906;BME280;47863;55.766;37.672;2024-02-23T04:39:55;100186.72;;;-2.28;93.64
61906;BME280;47863;55.766;37.672;2024-02-23T04:42:20;100208.91;;;-2.16;93.78
61906;BME280;47863;55.766;37.672;2024-02-23T04:44:46;100218.34;;;-2.12;94.05
61906;BME280;47863;55.766;37.672;2024-02-23T04:47:11;100199.03;;;-2.11;94.05
61906;BME280;47863;55.766;37.672;2024-02-23T04:49:37;100086.91;;;-2.84;93.71
61906;BME280;47863;55.766;37.672;2024-02-23T04:52:05;100213.75;;;-2.07;93.91
61906;BME280;47863;55.766;37.672;2024-02-23T04:54:30;100191.56;;;-2.19;94.17
61906;BME280;47863;55.766;37.672;2024-02-23T04:56:56;100137.91;;;-2.51;94.00
61906;BME280;47863;55.766;37.672;2024-02-23T04:59:22;100167.78;;;-2.35;94.17
61906;BME280;47863;55.766;37.672;2024-02-23T05:01:47;100224.09;;;-2.04;94.41
61906;BME280;47863;55.766;37.672;2024-02-23T05:04:13;100205.00;;;-2.08;94.10
61906;BME280;47863;55.766;37.672;2024-02-23T05:06:38;100222.31;;;-2.04;94.35
61906;BME280;47863;55.766;37.672;2024-02-23T05:09:05;100191.47;;;-2.17;94.48
61906;BME280;47863;55.766;37.672;2024-02-23T05:11:34;100212.03;;;-2.08;94.48
61906;BME280;47863;55.766;37.672;2024-02-23T05:14:00;100218.91;;;-2.06;94.66
61906;BME280;47863;55.766;37.672;2024-02-23T05:16:26;100230.84;;;-1.98;94.61
61906;BME280;47863;55.766;37.672;2024-02-23T05:18:52;100232.63;;;-1.99;94.64
61906;BME280;47863;55.766;37.672;2024-02-23T05:21:17;100203.03;;;-2.22;94.68
61906;BME280;47863;55.766;37.672;2024-02-23T05:23:43;100245.47;;;-1.93;94.46
61906;BME280;47863;55.766;37.672;2024-02-23T05:26:08;100212.09;;;-2.10;94.77
61906;BME280;47863;55.766;37.672;2024-02-23T05:28:34;100207.56;;;-2.06;94.27
61906;BME280;47863;55.766;37.672;2024-02-23T05:31:02;100219.34;;;-1.96;94.14
61906;BME280;47863;55.766;37.672;2024-02-23T05:33:32;100243.63;;;-1.91;94.25
61906;BME280;47863;55.766;37.672;2024-02-23T05:35:57;100217.59;;;-1.95;94.19
61906;BME280;47863;55.766;37.672;2024-02-23T05:38:23;100233.41;;;-1.97;94.29
61906;BME280;47863;55.766;37.672;2024-02-23T05:40:48;100243.47;;;-1.88;94.14
61906;BME280;47863;55.766;37.672;2024-02-23T05:43:14;100236.59;;;-1.90;94.65
61906;BME280;47863;55.766;37.672;2024-02-23T05:45:40;100239.56;;;-1.98;94.46
61906;BME280;47863;55.766;37.672;2024-02-23T05:48:09;100220.03;;;-2.11;94.51
61906;BME280;47863;55.766;37.672;2024-02-23T05:50:34;100259.09;;;-1.85;94.70
61906;BME280;47863;55.766;37.672;2024-02-23T05:53:00;100264.47;;;-1.88;94.49
61906;BME280;47863;55.766;37.672;2024-02-23T05:55:25;100251.22;;;-1.85;94.88
61906;BME280;47863;55.766;37.672;2024-02-23T05:57:51;100253.78;;;-1.83;94.65
61906;BME280;47863;55.766;37.672;2024-02-23T06:00:17;100254.50;;;-1.80;94.50
61906;BME280;47863;55.766;37.672;2024-02-23T06:02:47;100259.88;;;-1.83;94.62
61906;BME280;47863;55.766;37.672;2024-02-23T06:05:13;100207.78;;;-2.11;94.42
61906;BME280;47863;55.766;37.672;2024-02-23T06:07:38;100231.84;;;-2.01;94.54
61906;BME280;47863;55.766;37.672;2024-02-23T06:10:04;100248.53;;;-1.83;94.61
61906;BME280;47863;55.766;37.672;2024-02-23T06:12:30;100268.41;;;-1.77;94.36
61906;BME280;47863;55.766;37.672;2024-02-23T06:14:56;100257.81;;;-1.76;94.41
61906;BME280;47863;55.766;37.672;2024-02-23T06:17:24;100257.47;;;-1.87;94.73
61906;BME280;47863;55.766;37.672;2024-02-23T06:19:50;100266.47;;;-1.74;94.57
61906;BME280;47863;55.766;37.672;2024-02-23T06:22:16;100260.88;;;-1.85;94.67
61906;BME280;47863;55.766;37.672;2024-02-23T06:24:47;100253.19;;;-1.90;94.51
61906;BME280;47863;55.766;37.672;2024-02-23T06:27:12;100248.72;;;-1.88;94.57
61906;BME280;47863;55.766;37.672;2024-02-23T06:29:38;100253.00;;;-1.85;94.49
61906;BME280;47863;55.766;37.672;2024-02-23T06:32:04;100263.28;;;-1.81;94.09
61906;BME280;47863;55.766;37.672;2024-02-23T06:34:30;100274.09;;;-1.68;94.03
61906;BME280;47863;55.766;37.672;2024-02-23T06:36:55;100286.34;;;-1.68;94.13
61906;BME280;47863;55.766;37.672;2024-02-23T06:39:21;100266.41;;;-1.72;93.81
61906;BME280;47863;55.766;37.672;2024-02-23T06:41:46;100238.72;;;-1.98;94.13
61906;BME280;47863;55.766;37.672;2024-02-23T06:44:12;100261.06;;;-1.90;94.13
61906;BME280;47863;55.766;37.672;2024-02-23T06:46:38;100230.00;;;-1.99;94.29
61906;BME280;47863;55.766;37.672;2024-02-23T06:49:03;100285.22;;;-1.63;94.20
61906;BME280;47863;55.766;37.672;2024-02-23T06:51:31;100295.50;;;-1.58;94.36
61906;BME280;47863;55.766;37.672;2024-02-23T06:53:57;100294.59;;;-1.57;94.29
61906;BME280;47863;55.766;37.672;2024-02-23T06:56:23;100276.25;;;-1.58;93.93
61906;BME280;47863;55.766;37.672;2024-02-23T06:58:48;100269.81;;;-1.70;93.66
61906;BME280;47863;55.766;37.672;2024-02-23T07:01:14;100292.19;;;-1.62;93.77
61906;BME280;47863;55.766;37.672;2024-02-23T07:03:40;100256.06;;;-1.75;93.47
61906;BME280;47863;55.766;37.672;2024-02-23T07:06:08;100282.47;;;-1.60;93.46
61906;BME280;47863;55.766;37.672;2024-02-23T07:08:35;100296.91;;;-1.51;93.45
61906;BME280;47863;55.766;37.672;2024-02-23T07:11:01;100296.09;;;-1.51;93.84
61906;BME280;47863;55.766;37.672;2024-02-23T07:13:27;100291.06;;;-1.56;93.41
61906;BME280;47863;55.766;37.672;2024-02-23T07:15:52;100296.00;;;-1.50;93.58
61906;BME280;47863;55.766;37.672;2024-02-23T07:18:18;100282.28;;;-1.56;93.83
61906;BME280;47863;55.766;37.672;2024-02-23T07:20:44;100276.19;;;-1.57;93.31
61906;BME280;47863;55.766;37.672;2024-02-23T07:23:10;100291.19;;;-1.40;92.95
61906;BME280;47863;55.766;37.672;2024-02-23T07:25:35;100292.81;;;-1.37;93.32
61906;BME280;47863;55.766;37.672;2024-02-23T07:28:01;100300.63;;;-1.36;93.00
61906;BME280;47863;55.766;37.672;2024-02-23T07:30:27;100298.78;;;-1.34;93.29
61906;BME280;47863;55.766;37.672;2024-02-23T07:32:52;100295.66;;;-1.42;92.84
61906;BME280;47863;55.766;37.672;2024-02-23T07:35:18;100296.34;;;-1.38;93.00
61906;BME280;47863;55.766;37.672;2024-02-23T07:37:43;100302.88;;;-1.28;93.27
61906;BME280;47863;55.766;37.672;2024-02-23T07:40:09;100285.69;;;-1.35;92.74
61906;BME280;47863;55.766;37.672;2024-02-23T07:42:35;100285.81;;;-1.38;93.00
61906;BME280;47863;55.766;37.672;2024-02-23T07:45:06;100299.03;;;-1.21;92.84
61906;BME280;47863;55.766;37.672;2024-02-23T07:47:32;100298.00;;;-1.18;92.78
61906;BME280;47863;55.766;37.672;2024-02-23T07:49:58;100297.03;;;-1.16;92.56
61906;BME280;47863;55.766;37.672;2024-02-23T07:52:24;100288.38;;;-1.18;92.39
61906;BME280;47863;55.766;37.672;2024-02-23T07:54:52;100286.09;;;-1.26;92.09
61906;BME280;47863;55.766;37.672;2024-02-23T07:57:21;100263.13;;;-1.40;91.89
61906;BME280;47863;55.766;37.672;2024-02-23T07:59:47;100277.88;;;-1.37;91.66
61906;BME280;47863;55.766;37.672;2024-02-23T08:02:14;100280.44;;;-1.35;91.99
61906;BME280;47863;55.766;37.672;2024-02-23T08:04:40;100275.81;;;-1.30;91.75
61906;BME280;47863;55.766;37.672;2024-02-23T08:07:06;100300.75;;;-1.20;91.63
61906;BME280;47863;55.766;37.672;2024-02-23T08:09:31;100294.41;;;-1.35;92.08
61906;BME280;47863;55.766;37.672;2024-02-23T08:11:57;100274.09;;;-1.31;91.70
61906;BME280;47863;55.766;37.672;2024-02-23T08:14:23;100295.38;;;-1.18;91.83
61906;BME280;47863;55.766;37.672;2024-02-23T08:16:49;100317.75;;;-1.10;91.59
61906;BME280;47863;55.766;37.672;2024-02-23T08:19:15;100255.06;;;-1.36;91.69
61906;BME280;47863;55.766;37.672;2024-02-23T08:21:41;100302.53;;;-1.03;91.31
61906;BME280;47863;55.766;37.672;2024-02-23T08:24:07;100265.00;;;-1.24;90.95
61906;BME280;47863;55.766;37.672;2024-02-23T08:26:33;100323.38;;;-0.98;91.10
61906;BME280;47863;55.766;37.672;2024-02-23T08:28:59;100303.47;;;-1.04;91.36
61906;BME280;47863;55.766;37.672;2024-02-23T08:31:25;100291.59;;;-1.13;91.21
61906;BME280;47863;55.766;37.672;2024-02-23T08:33:50;100316.09;;;-0.93;91.22
61906;BME280;47863;55.766;37.672;2024-02-23T08:36:16;100319.50;;;-0.91;91.12
61906;BME280;47863;55.766;37.672;2024-02-23T08:38:41;100327.19;;;-0.87;91.16
61906;BME280;47863;55.766;37.672;2024-02-23T08:41:07;100328.63;;;-0.81;91.18
61906;BME280;47863;55.766;37.672;2024-02-23T08:43:33;100288.88;;;-0.92;90.65
61906;BME280;47863;55.766;37.672;2024-02-23T08:45:59;100336.91;;;-0.71;90.91
61906;BME280;47863;55.766;37.672;2024-02-23T08:48:24;100324.63;;;-0.71;90.85
61906;BME280;47863;55.766;37.672;2024-02-23T08:50:50;100293.44;;;-0.96;90.53
61906;BME280;47863;55.766;37.672;2024-02-23T08:53:15;100344.75;;;-0.70;90.52
61906;BME280;47863;55.766;37.672;2024-02-23T08:55:41;100340.31;;;-0.69;89.75
61906;BME280;47863;55.766;37.672;2024-02-23T08:58:07;100303.94;;;-0.96;89.96
61906;BME280;47863;55.766;37.672;2024-02-23T09:00:32;100317.72;;;-0.91;90.07
61906;BME280;47863;55.766;37.672;2024-02-23T09:02:58;100318.56;;;-0.90;90.23
61906;BME280;47863;55.766;37.672;2024-02-23T09:05:24;100338.22;;;-0.80;90.16
61906;BME280;47863;55.766;37.672;2024-02-23T09:07:49;100335.59;;;-0.80;90.35
61906;BME280;47863;55.766;37.672;2024-02-23T09:10:15;100288.69;;;-1.07;90.36
61906;BME280;47863;55.766;37.672;2024-02-23T09:12:41;100343.91;;;-0.70;90.87
61906;BME280;47863;55.766;37.672;2024-02-23T09:15:07;100318.81;;;-0.77;90.55
61906;BME280;47863;55.766;37.672;2024-02-23T09:17:33;100342.13;;;-0.52;90.40
61906;BME280;47863;55.766;37.672;2024-02-23T09:19:58;100343.66;;;-0.48;90.34
61906;BME280;47863;55.766;37.672;2024-02-23T09:22:24;100342.66;;;-0.46;90.31
61906;BME280;47863;55.766;37.672;2024-02-23T09:24:50;100338.88;;;-0.40;90.13
61906;BME280;47863;55.766;37.672;2024-02-23T09:27:15;100331.59;;;-0.35;89.66
61906;BME280;47863;55.766;37.672;2024-02-23T09:29:41;100314.09;;;-0.53;89.35
61906;BME280;47863;55.766;37.672;2024-02-23T09:32:09;100332.75;;;-0.41;89.36
61906;BME280;47863;55.766;37.672;2024-02-23T09:34:35;100316.72;;;-0.53;89.19
61906;BME280;47863;55.766;37.672;2024-02-23T09:37:01;100345.78;;;-0.37;89.57
61906;BME280;47863;55.766;37.672;2024-02-23T09:39:27;100300.00;;;-0.70;89.05
61906;BME280;47863;55.766;37.672;2024-02-23T09:41:56;100323.31;;;-0.62;89.50
61906;BME280;47863;55.766;37.672;2024-02-23T09:44:22;100297.38;;;-0.70;89.14
61906;BME280;47863;55.766;37.672;2024-02-23T09:46:48;100344.31;;;-0.43;89.47
61906;BME280;47863;55.766;37.672;2024-02-23T09:49:15;100241.53;;;-0.92;89.72
61906;BME280;47863;55.766;37.672;2024-02-23T09:51:41;100335.00;;;-0.33;89.89
61906;BME280;47863;55.766;37.672;2024-02-23T09:54:07;100337.31;;;-0.27;89.58
61906;BME280;47863;55.766;37.672;2024-02-23T09:56:33;100273.25;;;-0.61;89.47
61906;BME280;47863;55.766;37.672;2024-02-23T09:59:01;100298.78;;;-0.45;89.58
61906;BME280;47863;55.766;37.672;2024-02-23T10:01:28;100271.31;;;-0.57;89.62
61906;BME280;47863;55.766;37.672;2024-02-23T10:03:57;100342.72;;;-0.12;89.29
61906;BME280;47863;55.766;37.672;2024-02-23T10:06:27;100348.06;;;-0.14;89.43
61906;BME280;47863;55.766;37.672;2024-02-23T10:08:53;100353.44;;;-0.15;88.92
61906;BME280;47863;55.766;37.672;2024-02-23T10:11:22;100338.03;;;-0.23;89.06
61906;BME280;47863;55.766;37.672;2024-02-23T10:13:49;100361.41;;;-0.17;89.03
61906;BME280;47863;55.766;37.672;2024-02-23T10:16:19;100322.94;;;-0.37;88.93
61906;BME280;47863;55.766;37.672;2024-02-23T10:18:49;100323.38;;;-0.29;88.89
61906;BME280;47863;55.766;37.672;2024-02-23T10:21:16;100349.91;;;-0.16;89.27
61906;BME280;47863;55.766;37.672;2024-02-23T10:23:43;100353.31;;;-0.14;89.16
61906;BME280;47863;55.766;37.672;2024-02-23T10:26:10;100332.13;;;-0.28;89.47
61906;BME280;47863;55.766;37.672;2024-02-23T10:28:37;100353.19;;;-0.11;89.12
61906;BME280;47863;55.766;37.672;2024-02-23T10:31:05;100354.91;;;-0.10;89.41
61906;BME280;47863;55.766;37.672;2024-02-23T10:33:31;100317.28;;;-0.29;89.60
61906;BME280;47863;55.766;37.672;2024-02-23T10:35:57;100354.56;;;-0.04;89.50
61906;BME280;47863;55.766;37.672;2024-02-23T10:38:26;100347.66;;;-0.06;89.72
61906;BME280;47863;55.766;37.672;2024-02-23T10:40:55;100346.91;;;-0.08;89.58
61906;BME280;47863;55.766;37.672;2024-02-23T10:43:33;100372.44;;;0.07;89.46
61906;BME280;47863;55.766;37.672;2024-02-23T10:46:00;100346.28;;;0.04;89.31
61906;BME280;47863;55.766;37.672;2024-02-23T10:48:28;100353.69;;;0.13;89.27
61906;BME280;47863;55.766;37.672;2024-02-23T10:50:56;100331.72;;;-0.03;89.54
61906;BME280;47863;55.766;37.672;2024-02-23T10:53:24;100359.63;;;0.17;89.38
61906;BME280;47863;55.766;37.672;2024-02-23T10:55:56;100359.50;;;0.20;89.59
61906;BME280;47863;55.766;37.672;2024-02-23T10:58:24;100330.09;;;-0.06;89.28
61906;BME280;47863;55.766;37.672;2024-02-23T11:00:50;100392.88;;;0.19;89.40
61906;BME280;47863;55.766;37.672;2024-02-23T11:03:17;100370.97;;;0.02;89.50
61906;BME280;47863;55.766;37.672;2024-02-23T11:05:47;100377.56;;;0.10;89.46
61906;BME280;47863;55.766;37.672;2024-02-23T11:08:13;100350.41;;;-0.08;89.83
61906;BME280;47863;55.766;37.672;2024-02-23T11:10:49;100337.63;;;-0.15;89.39
61906;BME280;47863;55.766;37.672;2024-02-23T11:13:16;100378.34;;;0.12;89.93
61906;BME280;47863;55.766;37.672;2024-02-23T11:15:42;100337.81;;;-0.03;90.19
61906;BME280;47863;55.766;37.672;2024-02-23T11:18:22;100239.75;;;-0.74;89.88
61906;BME280;47863;55.766;37.672;2024-02-23T11:20:55;100362.09;;;0.04;89.80
61906;BME280;47863;55.766;37.672;2024-02-23T11:23:22;100366.09;;;0.11;90.27
61906;BME280;47863;55.766;37.672;2024-02-23T11:26:06;100380.31;;;0.25;90.27
61906;BME280;47863;55.766;37.672;2024-02-23T11:31:13;100394.88;;;0.32;89.99
61906;BME280;47863;55.766;37.672;2024-02-23T11:33:40;100372.25;;;0.28;89.78
61906;BME280;47863;55.766;37.672;2024-02-23T11:36:07;100334.72;;;0.07;90.21
61906;BME280;47863;55.766;37.672;2024-02-23T11:38:33;100397.28;;;0.36;89.89
61906;BME280;47863;55.766;37.672;2024-02-23T11:41:00;100382.56;;;0.32;89.78
61906;BME280;47863;55.766;37.672;2024-02-23T11:43:26;100360.16;;;0.24;90.30
61906;BME280;47863;55.766;37.672;2024-02-23T11:45:53;100403.06;;;0.43;90.06
61906;BME280;47863;55.766;37.672;2024-02-23T11:48:19;100385.69;;;0.39;90.09
61906;BME280;47863;55.766;37.672;2024-02-23T11:50:48;100323.75;;;-0.02;90.09
61906;BME280;47863;55.766;37.672;2024-02-23T11:53:14;100377.53;;;0.28;90.03
61906;BME280;47863;55.766;37.672;2024-02-23T11:55:40;100353.34;;;0.19;90.16
61906;BME280;47863;55.766;37.672;2024-02-23T11:58:06;100389.88;;;0.43;90.43
61906;BME280;47863;55.766;37.672;2024-02-23T12:00:32;100331.56;;;0.00;90.21
61906;BME280;47863;55.766;37.672;2024-02-23T12:02:58;100390.41;;;0.50;89.96
61906;BME280;47863;55.766;37.672;2024-02-23T12:05:24;100360.94;;;0.26;89.88
61906;BME280;47863;55.766;37.672;2024-02-23T12:07:50;100357.38;;;0.27;90.26
61906;BME280;47863;55.766;37.672;2024-02-23T12:10:16;100368.16;;;0.22;89.74
61906;BME280;47863;55.766;37.672;2024-02-23T12:12:42;100358.81;;;0.16;90.09
61906;BME280;47863;55.766;37.672;2024-02-23T12:15:08;100352.91;;;0.11;90.35
61906;BME280;47863;55.766;37.672;2024-02-23T12:17:37;100388.53;;;0.18;90.42
61906;BME280;47863;55.766;37.672;2024-02-23T12:20:03;100379.88;;;0.16;90.65
61906;BME280;47863;55.766;37.672;2024-02-23T12:22:29;100408.66;;;0.37;90.88
61906;BME280;47863;55.766;37.672;2024-02-23T12:24:59;100401.44;;;0.41;90.37
61906;BME280;47863;55.766;37.672;2024-02-23T12:27:26;100413.44;;;0.46;90.32
61906;BME280;47863;55.766;37.672;2024-02-23T12:29:52;100399.50;;;0.44;90.54
61906;BME280;47863;55.766;37.672;2024-02-23T12:32:20;100404.59;;;0.47;90.61
61906;BME280;47863;55.766;37.672;2024-02-23T12:34:46;100393.91;;;0.50;90.50
61906;BME280;47863;55.766;37.672;2024-02-23T12:37:16;100365.63;;;0.36;90.44
61906;BME280;47863;55.766;37.672;2024-02-23T12:39:43;100313.31;;;0.13;90.52